Saint-Gabriel-De-Brandon, Canada
Current Conditions -  °F | °C
As of 10:00 PM on Monday 22 Dec 2014 (Local Time) from CYRQ Reporting Station
Overcast Overcast  
Wind Chill: 11°   Ceiling: 3900
Heat Index: 21°   Visibility: 9mi
Dew Point: 18°   Wind: 9mph
Humidity: 86%   Direction: 40°NE
Pressure: 30.33"   Gusts: NA
Location:  46.28°N, 73.37°W
Report Text: CYRQ 230300Z AUTO 04008KT 9SM OVC039 M06/M08 A3033 RMK SLP274
Loading
Personal Weather Stations






























Interactive Weather Map New forecast layout! Learn more

10-Day Weather Forecast

Advertisements
Track Severe Weather on mobile